sensor_id;sensor_type;location;lat;lon;timestamp;P1;durP1;ratioP1;P2;durP2;ratioP2
61897;SDS011;47850;50.274;18.908;2023-07-13T00:00:30;5.50;;;2.90;;
61897;SDS011;47850;50.274;18.908;2023-07-13T00:03:38;5.90;;;3.00;;
61897;SDS011;47850;50.274;18.908;2023-07-13T00:08:36;4.00;;;2.70;;
61897;SDS011;47850;50.274;18.908;2023-07-13T00:11:04;7.90;;;2.90;;
61897;SDS011;47850;50.274;18.908;2023-07-13T00:13:31;3.60;;;2.50;;
61897;SDS011;47850;50.274;18.908;2023-07-13T00:15:59;5.90;;;2.90;;
61897;SDS011;47850;50.274;18.908;2023-07-13T00:18:28;7.10;;;2.90;;
61897;SDS011;47850;50.274;18.908;2023-07-13T00:20:57;3.90;;;2.70;;
61897;SDS011;47850;50.274;18.908;2023-07-13T00:23:33;5.90;;;3.10;;
61897;SDS011;47850;50.274;18.908;2023-07-13T00:26:05;7.30;;;2.60;;
61897;SDS011;47850;50.274;18.908;2023-07-13T00:31:02;4.20;;;2.30;;
61897;SDS011;47850;50.274;18.908;2023-07-13T00:33:30;4.30;;;2.80;;
61897;SDS011;47850;50.274;18.908;2023-07-13T00:35:57;6.90;;;2.70;;
61897;SDS011;47850;50.274;18.908;2023-07-13T00:38:25;5.00;;;2.70;;
61897;SDS011;47850;50.274;18.908;2023-07-13T00:40:53;5.00;;;2.80;;
61897;SDS011;47850;50.274;18.908;2023-07-13T00:43:21;6.90;;;3.10;;
61897;SDS011;47850;50.274;18.908;2023-07-13T00:48:22;4.00;;;2.70;;
61897;SDS011;47850;50.274;18.908;2023-07-13T00:50:55;6.10;;;2.80;;
61897;SDS011;47850;50.274;18.908;2023-07-13T00:53:26;3.70;;;2.30;;
61897;SDS011;47850;50.274;18.908;2023-07-13T00:55:57;5.00;;;2.50;;
61897;SDS011;47850;50.274;18.908;2023-07-13T00:58:25;5.20;;;2.60;;
61897;SDS011;47850;50.274;18.908;2023-07-13T01:00:54;7.00;;;2.70;;
61897;SDS011;47850;50.274;18.908;2023-07-13T01:03:23;4.90;;;2.80;;
61897;SDS011;47850;50.274;18.908;2023-07-13T01:05:51;4.70;;;2.60;;
61897;SDS011;47850;50.274;18.908;2023-07-13T01:08:21;8.60;;;2.70;;
61897;SDS011;47850;50.274;18.908;2023-07-13T01:10:56;5.20;;;2.70;;
61897;SDS011;47850;50.274;18.908;2023-07-13T01:13:25;4.80;;;2.70;;
61897;SDS011;47850;50.274;18.908;2023-07-13T01:15:55;4.80;;;2.70;;
61897;SDS011;47850;50.274;18.908;2023-07-13T01:18:26;3.20;;;2.40;;
61897;SDS011;47850;50.274;18.908;2023-07-13T01:20:59;5.20;;;2.90;;
61897;SDS011;47850;50.274;18.908;2023-07-13T01:23:30;5.10;;;2.90;;
61897;SDS011;47850;50.274;18.908;2023-07-13T01:25:59;3.50;;;2.40;;
61897;SDS011;47850;50.274;18.908;2023-07-13T01:28:27;3.40;;;2.40;;
61897;SDS011;47850;50.274;18.908;2023-07-13T01:30:57;4.10;;;2.50;;
61897;SDS011;47850;50.274;18.908;2023-07-13T01:35:54;3.20;;;2.60;;
61897;SDS011;47850;50.274;18.908;2023-07-13T01:38:25;4.90;;;2.90;;
61897;SDS011;47850;50.274;18.908;2023-07-13T01:40:53;5.70;;;2.80;;
61897;SDS011;47850;50.274;18.908;2023-07-13T01:43:21;4.80;;;2.50;;
61897;SDS011;47850;50.274;18.908;2023-07-13T01:45:48;4.50;;;3.10;;
61897;SDS011;47850;50.274;18.908;2023-07-13T01:48:16;4.90;;;2.30;;
61897;SDS011;47850;50.274;18.908;2023-07-13T01:50:44;3.90;;;2.70;;
61897;SDS011;47850;50.274;18.908;2023-07-13T01:53:13;5.40;;;2.60;;
61897;SDS011;47850;50.274;18.908;2023-07-13T01:55:41;4.30;;;2.70;;
61897;SDS011;47850;50.274;18.908;2023-07-13T01:58:09;3.70;;;2.70;;
61897;SDS011;47850;50.274;18.908;2023-07-13T02:00:37;5.10;;;2.40;;
61897;SDS011;47850;50.274;18.908;2023-07-13T02:03:05;3.70;;;2.90;;
61897;SDS011;47850;50.274;18.908;2023-07-13T02:05:33;5.20;;;2.90;;
61897;SDS011;47850;50.274;18.908;2023-07-13T02:08:01;6.30;;;3.00;;
61897;SDS011;47850;50.274;18.908;2023-07-13T02:10:29;7.20;;;3.00;;
61897;SDS011;47850;50.274;18.908;2023-07-13T02:12:56;5.10;;;3.10;;
61897;SDS011;47850;50.274;18.908;2023-07-13T02:15:24;4.70;;;2.80;;
61897;SDS011;47850;50.274;18.908;2023-07-13T02:17:52;4.90;;;3.60;;
61897;SDS011;47850;50.274;18.908;2023-07-13T02:20:20;4.70;;;3.40;;
61897;SDS011;47850;50.274;18.908;2023-07-13T02:22:47;4.40;;;3.00;;
61897;SDS011;47850;50.274;18.908;2023-07-13T02:25:15;4.90;;;2.80;;
61897;SDS011;47850;50.274;18.908;2023-07-13T02:27:43;7.60;;;3.10;;
61897;SDS011;47850;50.274;18.908;2023-07-13T02:30:11;5.30;;;3.30;;
61897;SDS011;47850;50.274;18.908;2023-07-13T02:32:39;9.50;;;3.40;;
61897;SDS011;47850;50.274;18.908;2023-07-13T02:35:06;4.10;;;3.00;;
61897;SDS011;47850;50.274;18.908;2023-07-13T02:37:34;5.40;;;2.90;;
61897;SDS011;47850;50.274;18.908;2023-07-13T02:40:02;5.70;;;3.00;;
61897;SDS011;47850;50.274;18.908;2023-07-13T02:42:35;4.50;;;2.60;;
61897;SDS011;47850;50.274;18.908;2023-07-13T02:45:03;4.30;;;2.90;;
61897;SDS011;47850;50.274;18.908;2023-07-13T02:47:34;7.70;;;3.60;;
61897;SDS011;47850;50.274;18.908;2023-07-13T02:50:02;4.70;;;2.90;;
61897;SDS011;47850;50.274;18.908;2023-07-13T02:52:31;6.20;;;3.70;;
61897;SDS011;47850;50.274;18.908;2023-07-13T02:54:58;5.20;;;3.40;;
61897;SDS011;47850;50.274;18.908;2023-07-13T02:57:26;4.20;;;3.10;;
61897;SDS011;47850;50.274;18.908;2023-07-13T02:59:55;8.30;;;3.20;;
61897;SDS011;47850;50.274;18.908;2023-07-13T03:02:23;6.90;;;3.40;;
61897;SDS011;47850;50.274;18.908;2023-07-13T03:04:51;6.60;;;3.20;;
61897;SDS011;47850;50.274;18.908;2023-07-13T03:07:18;5.20;;;3.20;;
61897;SDS011;47850;50.274;18.908;2023-07-13T03:09:46;6.00;;;3.60;;
61897;SDS011;47850;50.274;18.908;2023-07-13T03:12:14;4.60;;;3.30;;
61897;SDS011;47850;50.274;18.908;2023-07-13T03:14:41;6.60;;;3.40;;
61897;SDS011;47850;50.274;18.908;2023-07-13T03:17:09;5.90;;;3.30;;
61897;SDS011;47850;50.274;18.908;2023-07-13T03:19:37;4.90;;;3.70;;
61897;SDS011;47850;50.274;18.908;2023-07-13T03:22:05;6.50;;;4.40;;
61897;SDS011;47850;50.274;18.908;2023-07-13T03:24:33;8.20;;;4.20;;
61897;SDS011;47850;50.274;18.908;2023-07-13T03:27:02;7.80;;;4.70;;
61897;SDS011;47850;50.274;18.908;2023-07-13T03:29:31;7.90;;;4.30;;
61897;SDS011;47850;50.274;18.908;2023-07-13T03:31:59;5.90;;;4.10;;
61897;SDS011;47850;50.274;18.908;2023-07-13T03:34:26;5.70;;;3.90;;
61897;SDS011;47850;50.274;18.908;2023-07-13T03:36:54;7.20;;;4.30;;
61897;SDS011;47850;50.274;18.908;2023-07-13T03:39:22;6.80;;;3.90;;
61897;SDS011;47850;50.274;18.908;2023-07-13T03:41:50;7.40;;;4.10;;
61897;SDS011;47850;50.274;18.908;2023-07-13T03:44:18;6.90;;;4.10;;
61897;SDS011;47850;50.274;18.908;2023-07-13T03:46:46;9.00;;;4.20;;
61897;SDS011;47850;50.274;18.908;2023-07-13T03:49:14;8.40;;;4.30;;
61897;SDS011;47850;50.274;18.908;2023-07-13T03:51:42;7.30;;;4.40;;
61897;SDS011;47850;50.274;18.908;2023-07-13T03:54:10;6.70;;;4.40;;
61897;SDS011;47850;50.274;18.908;2023-07-13T03:56:37;7.60;;;4.10;;
61897;SDS011;47850;50.274;18.908;2023-07-13T03:59:05;10.80;;;4.30;;
61897;SDS011;47850;50.274;18.908;2023-07-13T04:01:33;9.70;;;4.80;;
61897;SDS011;47850;50.274;18.908;2023-07-13T04:04:01;7.50;;;4.30;;
61897;SDS011;47850;50.274;18.908;2023-07-13T04:06:29;6.70;;;4.50;;
61897;SDS011;47850;50.274;18.908;2023-07-13T04:08:58;7.10;;;4.50;;
61897;SDS011;47850;50.274;18.908;2023-07-13T04:11:29;7.40;;;4.20;;
61897;SDS011;47850;50.274;18.908;2023-07-13T04:13:59;8.80;;;4.30;;
61897;SDS011;47850;50.274;18.908;2023-07-13T04:16:27;7.70;;;3.60;;
61897;SDS011;47850;50.274;18.908;2023-07-13T04:18:56;8.80;;;3.50;;
61897;SDS011;47850;50.274;18.908;2023-07-13T04:21:27;4.70;;;3.40;;
61897;SDS011;47850;50.274;18.908;2023-07-13T04:26:25;5.60;;;4.00;;
61897;SDS011;47850;50.274;18.908;2023-07-13T04:28:53;6.30;;;3.30;;
61897;SDS011;47850;50.274;18.908;2023-07-13T04:31:21;5.90;;;4.40;;
61897;SDS011;47850;50.274;18.908;2023-07-13T04:33:49;6.10;;;4.10;;
61897;SDS011;47850;50.274;18.908;2023-07-13T04:36:18;6.50;;;4.70;;
61897;SDS011;47850;50.274;18.908;2023-07-13T04:38:46;7.70;;;4.70;;
61897;SDS011;47850;50.274;18.908;2023-07-13T04:41:14;8.30;;;4.80;;
61897;SDS011;47850;50.274;18.908;2023-07-13T04:43:42;7.20;;;4.90;;
61897;SDS011;47850;50.274;18.908;2023-07-13T04:46:11;10.40;;;4.90;;
61897;SDS011;47850;50.274;18.908;2023-07-13T04:48:41;9.60;;;4.90;;
61897;SDS011;47850;50.274;18.908;2023-07-13T04:51:09;10.30;;;6.30;;
61897;SDS011;47850;50.274;18.908;2023-07-13T04:53:37;10.10;;;5.80;;
61897;SDS011;47850;50.274;18.908;2023-07-13T04:56:05;11.90;;;5.20;;
61897;SDS011;47850;50.274;18.908;2023-07-13T04:58:33;7.80;;;5.00;;
61897;SDS011;47850;50.274;18.908;2023-07-13T05:01:02;12.70;;;5.70;;
61897;SDS011;47850;50.274;18.908;2023-07-13T05:03:32;10.60;;;5.60;;
61897;SDS011;47850;50.274;18.908;2023-07-13T05:06:02;11.40;;;5.40;;
61897;SDS011;47850;50.274;18.908;2023-07-13T05:08:33;13.40;;;5.80;;
61897;SDS011;47850;50.274;18.908;2023-07-13T05:11:01;9.30;;;5.70;;
61897;SDS011;47850;50.274;18.908;2023-07-13T05:13:31;9.70;;;5.80;;
61897;SDS011;47850;50.274;18.908;2023-07-13T05:15:59;9.60;;;6.00;;
61897;SDS011;47850;50.274;18.908;2023-07-13T05:18:29;11.70;;;6.20;;
61897;SDS011;47850;50.274;18.908;2023-07-13T05:21:02;11.40;;;6.30;;
61897;SDS011;47850;50.274;18.908;2023-07-13T05:23:34;10.20;;;5.90;;
61897;SDS011;47850;50.274;18.908;2023-07-13T05:26:03;12.80;;;6.40;;
61897;SDS011;47850;50.274;18.908;2023-07-13T05:28:32;8.80;;;6.10;;
61897;SDS011;47850;50.274;18.908;2023-07-13T05:31:00;10.80;;;6.20;;
61897;SDS011;47850;50.274;18.908;2023-07-13T05:33:28;12.00;;;6.30;;
61897;SDS011;47850;50.274;18.908;2023-07-13T05:35:56;10.80;;;5.70;;
61897;SDS011;47850;50.274;18.908;2023-07-13T05:38:24;9.80;;;5.60;;
61897;SDS011;47850;50.274;18.908;2023-07-13T05:40:52;15.30;;;5.50;;
61897;SDS011;47850;50.274;18.908;2023-07-13T05:43:22;9.20;;;5.30;;
61897;SDS011;47850;50.274;18.908;2023-07-13T05:45:53;10.60;;;5.50;;
61897;SDS011;47850;50.274;18.908;2023-07-13T05:48:22;10.30;;;4.90;;
61897;SDS011;47850;50.274;18.908;2023-07-13T05:50:50;9.70;;;4.40;;
61897;SDS011;47850;50.274;18.908;2023-07-13T05:53:18;9.80;;;5.10;;
61897;SDS011;47850;50.274;18.908;2023-07-13T05:55:47;9.80;;;5.10;;
61897;SDS011;47850;50.274;18.908;2023-07-13T05:58:17;10.10;;;4.60;;
61897;SDS011;47850;50.274;18.908;2023-07-13T06:00:46;10.10;;;4.90;;
61897;SDS011;47850;50.274;18.908;2023-07-13T06:03:14;9.80;;;4.60;;
61897;SDS011;47850;50.274;18.908;2023-07-13T06:05:43;8.50;;;4.80;;
61897;SDS011;47850;50.274;18.908;2023-07-13T06:08:11;11.70;;;5.60;;
61897;SDS011;47850;50.274;18.908;2023-07-13T06:10:39;17.60;;;7.30;;
61897;SDS011;47850;50.274;18.908;2023-07-13T06:13:06;25.80;;;10.10;;
61897;SDS011;47850;50.274;18.908;2023-07-13T06:15:34;21.00;;;9.90;;
61897;SDS011;47850;50.274;18.908;2023-07-13T06:18:02;20.70;;;9.40;;
61897;SDS011;47850;50.274;18.908;2023-07-13T06:20:30;24.00;;;8.40;;
61897;SDS011;47850;50.274;18.908;2023-07-13T06:23:01;11.50;;;6.10;;
61897;SDS011;47850;50.274;18.908;2023-07-13T06:25:29;11.70;;;5.50;;
61897;SDS011;47850;50.274;18.908;2023-07-13T06:27:56;10.60;;;4.90;;
61897;SDS011;47850;50.274;18.908;2023-07-13T06:30:24;9.90;;;4.30;;
61897;SDS011;47850;50.274;18.908;2023-07-13T06:32:52;9.00;;;4.50;;
61897;SDS011;47850;50.274;18.908;2023-07-13T06:35:20;7.90;;;4.10;;
61897;SDS011;47850;50.274;18.908;2023-07-13T06:37:48;6.40;;;3.70;;
61897;SDS011;47850;50.274;18.908;2023-07-13T06:40:15;8.00;;;3.20;;
61897;SDS011;47850;50.274;18.908;2023-07-13T06:42:44;9.20;;;3.70;;
61897;SDS011;47850;50.274;18.908;2023-07-13T06:45:12;4.90;;;3.30;;
61897;SDS011;47850;50.274;18.908;2023-07-13T06:47:40;6.40;;;3.20;;
61897;SDS011;47850;50.274;18.908;2023-07-13T06:50:08;6.50;;;3.20;;
61897;SDS011;47850;50.274;18.908;2023-07-13T06:52:36;9.30;;;3.50;;
61897;SDS011;47850;50.274;18.908;2023-07-13T06:55:04;5.80;;;3.30;;
61897;SDS011;47850;50.274;18.908;2023-07-13T06:57:32;7.10;;;3.50;;
61897;SDS011;47850;50.274;18.908;2023-07-13T07:00:00;6.90;;;3.20;;
61897;SDS011;47850;50.274;18.908;2023-07-13T07:02:27;6.40;;;3.70;;
61897;SDS011;47850;50.274;18.908;2023-07-13T07:04:55;12.20;;;3.80;;
61897;SDS011;47850;50.274;18.908;2023-07-13T07:07:23;6.80;;;4.00;;
61897;SDS011;47850;50.274;18.908;2023-07-13T07:09:52;10.80;;;4.10;;
61897;SDS011;47850;50.274;18.908;2023-07-13T07:12:20;14.80;;;4.10;;
61897;SDS011;47850;50.274;18.908;2023-07-13T07:14:48;9.50;;;4.10;;
61897;SDS011;47850;50.274;18.908;2023-07-13T07:17:15;7.80;;;4.80;;
61897;SDS011;47850;50.274;18.908;2023-07-13T07:19:43;10.90;;;4.60;;
61897;SDS011;47850;50.274;18.908;2023-07-13T07:22:11;11.30;;;4.50;;
61897;SDS011;47850;50.274;18.908;2023-07-13T07:24:42;8.30;;;4.80;;
61897;SDS011;47850;50.274;18.908;2023-07-13T07:27:09;9.40;;;5.20;;
61897;SDS011;47850;50.274;18.908;2023-07-13T07:29:37;12.10;;;4.90;;
61897;SDS011;47850;50.274;18.908;2023-07-13T07:32:05;9.00;;;5.00;;
61897;SDS011;47850;50.274;18.908;2023-07-13T07:34:33;8.60;;;4.50;;
61897;SDS011;47850;50.274;18.908;2023-07-13T07:37:01;11.30;;;4.60;;
61897;SDS011;47850;50.274;18.908;2023-07-13T07:39:30;7.60;;;4.10;;
61897;SDS011;47850;50.274;18.908;2023-07-13T07:41:58;11.30;;;4.40;;
61897;SDS011;47850;50.274;18.908;2023-07-13T07:44:26;9.70;;;4.30;;
61897;SDS011;47850;50.274;18.908;2023-07-13T07:46:55;7.30;;;4.60;;
61897;SDS011;47850;50.274;18.908;2023-07-13T07:49:23;10.10;;;4.90;;
61897;SDS011;47850;50.274;18.908;2023-07-13T07:51:51;8.70;;;4.90;;
61897;SDS011;47850;50.274;18.908;2023-07-13T07:54:19;8.50;;;4.50;;
61897;SDS011;47850;50.274;18.908;2023-07-13T07:56:47;9.80;;;4.00;;
61897;SDS011;47850;50.274;18.908;2023-07-13T07:59:15;5.50;;;4.10;;
61897;SDS011;47850;50.274;18.908;2023-07-13T08:01:42;6.50;;;3.80;;
61897;SDS011;47850;50.274;18.908;2023-07-13T08:04:10;9.00;;;3.90;;
61897;SDS011;47850;50.274;18.908;2023-07-13T08:06:38;7.60;;;4.10;;
61897;SDS011;47850;50.274;18.908;2023-07-13T08:09:06;9.90;;;3.80;;
61897;SDS011;47850;50.274;18.908;2023-07-13T08:11:35;8.00;;;3.70;;
61897;SDS011;47850;50.274;18.908;2023-07-13T08:14:03;6.30;;;4.00;;
61897;SDS011;47850;50.274;18.908;2023-07-13T08:16:31;8.90;;;3.90;;
61897;SDS011;47850;50.274;18.908;2023-07-13T08:19:00;7.50;;;4.00;;
61897;SDS011;47850;50.274;18.908;2023-07-13T08:21:28;14.40;;;5.20;;
61897;SDS011;47850;50.274;18.908;2023-07-13T08:23:56;7.80;;;4.70;;
61897;SDS011;47850;50.274;18.908;2023-07-13T08:26:26;7.30;;;4.50;;
61897;SDS011;47850;50.274;18.908;2023-07-13T08:29:00;8.00;;;4.20;;
61897;SDS011;47850;50.274;18.908;2023-07-13T08:31:44;9.60;;;3.70;;
61897;SDS011;47850;50.274;18.908;2023-07-13T08:34:26;8.80;;;3.50;;
61897;SDS011;47850;50.274;18.908;2023-07-13T08:37:13;7.70;;;3.70;;
61897;SDS011;47850;50.274;18.908;2023-07-13T08:39:47;7.40;;;3.20;;
61897;SDS011;47850;50.274;18.908;2023-07-13T08:45:44;10.60;;;3.00;;
61897;SDS011;47850;50.274;18.908;2023-07-13T08:48:29;5.10;;;2.90;;
61897;SDS011;47850;50.274;18.908;2023-07-13T08:54:50;7.30;;;3.90;;
61897;SDS011;47850;50.274;18.908;2023-07-13T09:03:52;7.90;;;3.50;;
61897;SDS011;47850;50.274;18.908;2023-07-13T09:15:46;7.10;;;4.20;;
61897;SDS011;47850;50.274;18.908;2023-07-13T09:18:44;7.90;;;4.60;;
61897;SDS011;47850;50.274;18.908;2023-07-13T09:21:39;13.20;;;5.00;;
61897;SDS011;47850;50.274;18.908;2023-07-13T09:29:50;7.90;;;5.00;;
61897;SDS011;47850;50.274;18.908;2023-07-13T09:32:25;10.40;;;5.30;;
61897;SDS011;47850;50.274;18.908;2023-07-13T09:37:24;16.70;;;5.40;;
61897;SDS011;47850;50.274;18.908;2023-07-13T09:39:58;10.30;;;5.10;;
61897;SDS011;47850;50.274;18.908;2023-07-13T09:42:32;8.50;;;5.10;;
61897;SDS011;47850;50.274;18.908;2023-07-13T09:45:01;10.10;;;5.20;;
61897;SDS011;47850;50.274;18.908;2023-07-13T09:50:00;10.40;;;4.80;;
61897;SDS011;47850;50.274;18.908;2023-07-13T09:52:51;10.20;;;4.00;;
61897;SDS011;47850;50.274;18.908;2023-07-13T09:57:52;10.40;;;2.80;;
61897;SDS011;47850;50.274;18.908;2023-07-13T10:00:21;6.00;;;2.40;;
61897;SDS011;47850;50.274;18.908;2023-07-13T10:03:03;5.60;;;2.20;;
61897;SDS011;47850;50.274;18.908;2023-07-13T10:05:50;9.90;;;2.70;;
61897;SDS011;47850;50.274;18.908;2023-07-13T10:08:24;3.00;;;1.80;;
61897;SDS011;47850;50.274;18.908;2023-07-13T10:10:58;5.80;;;2.00;;
61897;SDS011;47850;50.274;18.908;2023-07-13T10:13:33;5.40;;;2.30;;
61897;SDS011;47850;50.274;18.908;2023-07-13T10:16:06;6.90;;;2.20;;
61897;SDS011;47850;50.274;18.908;2023-07-13T10:18:43;3.80;;;1.90;;
61897;SDS011;47850;50.274;18.908;2023-07-13T10:21:20;5.00;;;2.30;;
61897;SDS011;47850;50.274;18.908;2023-07-13T10:23:54;3.30;;;1.70;;
61897;SDS011;47850;50.274;18.908;2023-07-13T10:26:27;3.80;;;1.70;;
61897;SDS011;47850;50.274;18.908;2023-07-13T10:29:00;5.70;;;1.80;;
61897;SDS011;47850;50.274;18.908;2023-07-13T10:31:31;2.60;;;1.60;;
61897;SDS011;47850;50.274;18.908;2023-07-13T10:33:59;3.70;;;1.80;;
61897;SDS011;47850;50.274;18.908;2023-07-13T10:36:32;1.90;;;1.40;;
61897;SDS011;47850;50.274;18.908;2023-07-13T10:39:06;4.20;;;1.60;;
61897;SDS011;47850;50.274;18.908;2023-07-13T10:41:36;2.70;;;1.50;;
61897;SDS011;47850;50.274;18.908;2023-07-13T10:44:11;4.40;;;1.80;;
61897;SDS011;47850;50.274;18.908;2023-07-13T10:47:14;6.70;;;1.90;;
61897;SDS011;47850;50.274;18.908;2023-07-13T10:49:45;5.30;;;1.70;;
61897;SDS011;47850;50.274;18.908;2023-07-13T10:55:55;5.00;;;1.70;;
61897;SDS011;47850;50.274;18.908;2023-07-13T10:58:15;3.60;;;1.70;;
61897;SDS011;47850;50.274;18.908;2023-07-13T11:00:48;3.60;;;1.80;;
61897;SDS011;47850;50.274;18.908;2023-07-13T11:03:20;2.30;;;1.70;;
61897;SDS011;47850;50.274;18.908;2023-07-13T11:05:50;7.00;;;2.00;;
61897;SDS011;47850;50.274;18.908;2023-07-13T11:08:34;5.80;;;3.00;;
61897;SDS011;47850;50.274;18.908;2023-07-13T11:11:32;5.70;;;2.40;;
61897;SDS011;47850;50.274;18.908;2023-07-13T11:13:59;4.30;;;2.20;;
61897;SDS011;47850;50.274;18.908;2023-07-13T11:21:35;12.40;;;4.70;;
61897;SDS011;47850;50.274;18.908;2023-07-13T11:27:39;12.60;;;4.00;;
61897;SDS011;47850;50.274;18.908;2023-07-13T11:30:31;13.40;;;4.70;;
61897;SDS011;47850;50.274;18.908;2023-07-13T11:35:35;10.50;;;3.30;;
61897;SDS011;47850;50.274;18.908;2023-07-13T11:38:14;4.20;;;2.30;;
61897;SDS011;47850;50.274;18.908;2023-07-13T11:43:15;9.40;;;3.20;;
61897;SDS011;47850;50.274;18.908;2023-07-13T11:45:44;9.50;;;3.30;;
61897;SDS011;47850;50.274;18.908;2023-07-13T11:48:19;6.00;;;2.10;;
61897;SDS011;47850;50.274;18.908;2023-07-13T11:50:59;5.20;;;2.00;;
61897;SDS011;47850;50.274;18.908;2023-07-13T11:56:07;2.80;;;1.70;;
61897;SDS011;47850;50.274;18.908;2023-07-13T11:58:35;2.90;;;1.70;;
61897;SDS011;47850;50.274;18.908;2023-07-13T12:01:03;3.20;;;1.70;;
61897;SDS011;47850;50.274;18.908;2023-07-13T12:03:34;5.00;;;1.80;;
61897;SDS011;47850;50.274;18.908;2023-07-13T12:06:03;3.40;;;1.70;;
61897;SDS011;47850;50.274;18.908;2023-07-13T12:08:39;4.20;;;1.70;;
61897;SDS011;47850;50.274;18.908;2023-07-13T12:11:17;2.80;;;1.80;;
61897;SDS011;47850;50.274;18.908;2023-07-13T12:13:49;2.80;;;1.80;;
61897;SDS011;47850;50.274;18.908;2023-07-13T12:16:22;2.50;;;1.60;;
61897;SDS011;47850;50.274;18.908;2023-07-13T12:18:52;2.30;;;1.90;;
61897;SDS011;47850;50.274;18.908;2023-07-13T12:21:44;2.20;;;1.40;;
61897;SDS011;47850;50.274;18.908;2023-07-13T12:24:18;3.90;;;1.60;;
61897;SDS011;47850;50.274;18.908;2023-07-13T12:26:52;2.30;;;1.60;;
61897;SDS011;47850;50.274;18.908;2023-07-13T12:29:21;4.60;;;2.00;;
61897;SDS011;47850;50.274;18.908;2023-07-13T12:31:49;5.40;;;2.30;;
61897;SDS011;47850;50.274;18.908;2023-07-13T12:34:22;3.40;;;2.30;;
61897;SDS011;47850;50.274;18.908;2023-07-13T12:36:53;6.70;;;2.10;;
61897;SDS011;47850;50.274;18.908;2023-07-13T12:42:21;13.10;;;2.60;;
61897;SDS011;47850;50.274;18.908;2023-07-13T12:44:58;6.60;;;3.90;;
61897;SDS011;47850;50.274;18.908;2023-07-13T12:47:47;3.80;;;2.80;;
61897;SDS011;47850;50.274;18.908;2023-07-13T12:50:18;4.70;;;2.80;;
61897;SDS011;47850;50.274;18.908;2023-07-13T12:52:52;6.30;;;3.30;;
61897;SDS011;47850;50.274;18.908;2023-07-13T12:55:22;7.30;;;4.20;;
61897;SDS011;47850;50.274;18.908;2023-07-13T13:00:30;5.50;;;3.20;;
61897;SDS011;47850;50.274;18.908;2023-07-13T13:03:05;3.40;;;2.40;;
61897;SDS011;47850;50.274;18.908;2023-07-13T13:05:38;4.70;;;2.30;;
61897;SDS011;47850;50.274;18.908;2023-07-13T13:08:08;4.10;;;2.40;;
61897;SDS011;47850;50.274;18.908;2023-07-13T13:10:38;6.20;;;3.70;;
61897;SDS011;47850;50.274;18.908;2023-07-13T13:13:06;9.20;;;4.80;;
61897;SDS011;47850;50.274;18.908;2023-07-13T13:15:35;7.70;;;3.90;;
61897;SDS011;47850;50.274;18.908;2023-07-13T13:18:09;4.70;;;2.80;;
61897;SDS011;47850;50.274;18.908;2023-07-13T13:20:45;3.60;;;2.10;;
61897;SDS011;47850;50.274;18.908;2023-07-13T13:23:14;2.40;;;1.80;;
61897;SDS011;47850;50.274;18.908;2023-07-13T13:25:49;6.50;;;2.60;;
61897;SDS011;47850;50.274;18.908;2023-07-13T13:28:19;3.70;;;2.20;;
61897;SDS011;47850;50.274;18.908;2023-07-13T13:33:19;5.00;;;2.40;;
61897;SDS011;47850;50.274;18.908;2023-07-13T13:35:49;7.30;;;2.80;;
61897;SDS011;47850;50.274;18.908;2023-07-13T13:38:19;6.30;;;2.80;;
61897;SDS011;47850;50.274;18.908;2023-07-13T13:40:48;8.00;;;2.20;;
61897;SDS011;47850;50.274;18.908;2023-07-13T13:43:17;8.90;;;3.90;;
61897;SDS011;47850;50.274;18.908;2023-07-13T13:45:57;6.60;;;2.40;;
61897;SDS011;47850;50.274;18.908;2023-07-13T13:48:31;3.40;;;1.90;;
61897;SDS011;47850;50.274;18.908;2023-07-13T13:51:01;6.90;;;2.50;;
61897;SDS011;47850;50.274;18.908;2023-07-13T13:53:39;3.20;;;2.10;;
61897;SDS011;47850;50.274;18.908;2023-07-13T13:56:07;4.20;;;1.70;;
61897;SDS011;47850;50.274;18.908;2023-07-13T13:58:37;4.70;;;2.30;;
61897;SDS011;47850;50.274;18.908;2023-07-13T14:01:08;4.10;;;2.00;;
61897;SDS011;47850;50.274;18.908;2023-07-13T14:03:45;5.00;;;1.70;;
61897;SDS011;47850;50.274;18.908;2023-07-13T14:06:15;2.60;;;1.50;;
61897;SDS011;47850;50.274;18.908;2023-07-13T14:08:43;2.50;;;1.70;;
61897;SDS011;47850;50.274;18.908;2023-07-13T14:11:12;5.50;;;2.20;;
61897;SDS011;47850;50.274;18.908;2023-07-13T14:13:43;4.20;;;2.40;;
61897;SDS011;47850;50.274;18.908;2023-07-13T14:16:26;5.20;;;2.80;;
61897;SDS011;47850;50.274;18.908;2023-07-13T14:18:57;4.00;;;2.00;;
61897;SDS011;47850;50.274;18.908;2023-07-13T14:21:28;3.80;;;2.00;;
61897;SDS011;47850;50.274;18.908;2023-07-13T14:23:56;7.20;;;2.60;;
61897;SDS011;47850;50.274;18.908;2023-07-13T14:26:26;7.50;;;3.10;;
61897;SDS011;47850;50.274;18.908;2023-07-13T14:28:55;3.10;;;2.00;;
61897;SDS011;47850;50.274;18.908;2023-07-13T14:31:25;5.80;;;2.20;;
61897;SDS011;47850;50.274;18.908;2023-07-13T14:33:56;5.50;;;2.10;;
61897;SDS011;47850;50.274;18.908;2023-07-13T14:38:55;7.70;;;2.40;;
61897;SDS011;47850;50.274;18.908;2023-07-13T14:41:25;2.80;;;2.00;;
61897;SDS011;47850;50.274;18.908;2023-07-13T14:43:53;4.10;;;2.10;;
61897;SDS011;47850;50.274;18.908;2023-07-13T14:46:24;5.40;;;2.20;;
61897;SDS011;47850;50.274;18.908;2023-07-13T14:49:00;6.50;;;1.80;;
61897;SDS011;47850;50.274;18.908;2023-07-13T14:51:29;4.00;;;1.80;;
61897;SDS011;47850;50.274;18.908;2023-07-13T14:56:30;2.10;;;1.80;;
61897;SDS011;47850;50.274;18.908;2023-07-13T14:58:57;4.00;;;2.30;;
61897;SDS011;47850;50.274;18.908;2023-07-13T15:01:25;5.40;;;2.20;;
61897;SDS011;47850;50.274;18.908;2023-07-13T15:03:54;8.10;;;3.10;;
61897;SDS011;47850;50.274;18.908;2023-07-13T15:06:21;4.90;;;2.60;;
61897;SDS011;47850;50.274;18.908;2023-07-13T15:08:49;2.30;;;1.90;;
61897;SDS011;47850;50.274;18.908;2023-07-13T15:11:17;2.50;;;2.00;;
61897;SDS011;47850;50.274;18.908;2023-07-13T15:13:45;4.90;;;2.90;;
61897;SDS011;47850;50.274;18.908;2023-07-13T15:16:15;4.70;;;2.60;;
61897;SDS011;47850;50.274;18.908;2023-07-13T15:18:49;7.80;;;2.50;;
61897;SDS011;47850;50.274;18.908;2023-07-13T15:21:22;3.40;;;2.70;;
61897;SDS011;47850;50.274;18.908;2023-07-13T15:23:52;6.70;;;3.10;;
61897;SDS011;47850;50.274;18.908;2023-07-13T15:26:19;5.70;;;2.30;;
61897;SDS011;47850;50.274;18.908;2023-07-13T15:28:47;4.20;;;2.50;;
61897;SDS011;47850;50.274;18.908;2023-07-13T15:31:17;7.30;;;2.70;;
61897;SDS011;47850;50.274;18.908;2023-07-13T15:33:55;5.60;;;3.40;;
61897;SDS011;47850;50.274;18.908;2023-07-13T15:36:25;6.70;;;2.90;;
61897;SDS011;47850;50.274;18.908;2023-07-13T15:38:54;4.90;;;2.70;;
61897;SDS011;47850;50.274;18.908;2023-07-13T15:41:24;8.30;;;3.30;;
61897;SDS011;47850;50.274;18.908;2023-07-13T15:43:54;7.10;;;3.10;;
61897;SDS011;47850;50.274;18.908;2023-07-13T15:46:27;6.50;;;3.00;;
61897;SDS011;47850;50.274;18.908;2023-07-13T15:51:26;5.70;;;2.90;;
61897;SDS011;47850;50.274;18.908;2023-07-13T15:53:59;5.60;;;3.30;;
61897;SDS011;47850;50.274;18.908;2023-07-13T15:56:34;5.00;;;2.50;;
61897;SDS011;47850;50.274;18.908;2023-07-13T15:59:04;3.70;;;1.40;;
61897;SDS011;47850;50.274;18.908;2023-07-13T16:01:32;1.90;;;1.50;;
61897;SDS011;47850;50.274;18.908;2023-07-13T16:04:00;2.30;;;1.50;;
61897;SDS011;47850;50.274;18.908;2023-07-13T16:06:32;3.20;;;1.80;;
61897;SDS011;47850;50.274;18.908;2023-07-13T16:09:03;4.10;;;2.10;;
61897;SDS011;47850;50.274;18.908;2023-07-13T16:11:33;4.00;;;1.70;;
61897;SDS011;47850;50.274;18.908;2023-07-13T16:14:04;2.00;;;1.30;;
61897;SDS011;47850;50.274;18.908;2023-07-13T16:16:34;3.40;;;1.30;;